Terminal Aerodrome Forecast
Issued by NWS

Home | Current Version | Previous Version | Text Only | Print | Product List | Glossary On
Versions: 1 2 3 4 5 6 7 8 9 10 11 12 13 14 15
000
FTUS41 KPBZ 241700
TAFBVI
TAF
KBVI 241734Z 2418/2518 13006KT P6SM SCT035 BKN150 WS015/19035KT
     FM242000 17010KT P6SM BKN035 OVC040 WS015/19040KT
     FM250000 23020G33KT P6SM -SHRA BKN020 OVC030
      TEMPO 2500/2502 20025G40KT 3SM TSRA OVC015CB
     FM250200 25017G29KT P6SM VCSH OVC020
     FM251200 24013G23KT P6SM -SHSN OVC015
      AMD NOT SKED=

USA.gov is the U.S. government's official web portal to all federal, state and local government web resources and services.